sensor_id;sensor_type;location;lat;lon;timestamp;temperature;humidity
51035;DHT22;37062;52.546;13.230;2023-08-06T00:00:44;19.90;99.90
51035;DHT22;37062;52.546;13.230;2023-08-06T00:03:12;20.00;99.90
51035;DHT22;37062;52.546;13.230;2023-08-06T00:05:43;19.90;99.90
51035;DHT22;37062;52.546;13.230;2023-08-06T00:08:11;20.00;99.90
51035;DHT22;37062;52.546;13.230;2023-08-06T00:10:39;20.00;99.90
51035;DHT22;37062;52.546;13.230;2023-08-06T00:13:08;20.00;99.90
51035;DHT22;37062;52.546;13.230;2023-08-06T00:15:36;19.90;99.90
51035;DHT22;37062;52.546;13.230;2023-08-06T00:18:04;19.90;99.90
51035;DHT22;37062;52.546;13.230;2023-08-06T00:20:32;19.90;99.90
51035;DHT22;37062;52.546;13.230;2023-08-06T00:23:02;19.90;99.90
51035;DHT22;37062;52.546;13.230;2023-08-06T00:25:30;20.00;99.90
51035;DHT22;37062;52.546;13.230;2023-08-06T00:27:59;20.00;99.90
51035;DHT22;37062;52.546;13.230;2023-08-06T00:30:27;20.10;99.90
51035;DHT22;37062;52.546;13.230;2023-08-06T00:32:55;20.00;99.90
51035;DHT22;37062;52.546;13.230;2023-08-06T00:35:24;20.10;99.90
51035;DHT22;37062;52.546;13.230;2023-08-06T00:37:53;20.20;99.90
51035;DHT22;37062;52.546;13.230;2023-08-06T00:40:23;20.20;99.90
51035;DHT22;37062;52.546;13.230;2023-08-06T00:42:52;20.30;99.90
51035;DHT22;37062;52.546;13.230;2023-08-06T00:45:20;20.20;99.90
51035;DHT22;37062;52.546;13.230;2023-08-06T00:47:51;20.30;99.90
51035;DHT22;37062;52.546;13.230;2023-08-06T00:50:19;20.30;99.90
51035;DHT22;37062;52.546;13.230;2023-08-06T00:52:49;20.20;99.90
51035;DHT22;37062;52.546;13.230;2023-08-06T00:55:18;20.20;99.90
51035;DHT22;37062;52.546;13.230;2023-08-06T00:57:48;20.20;99.90
51035;DHT22;37062;52.546;13.230;2023-08-06T01:00:18;20.20;99.90
51035;DHT22;37062;52.546;13.230;2023-08-06T01:02:48;20.10;99.90
51035;DHT22;37062;52.546;13.230;2023-08-06T01:05:16;20.00;99.90
51035;DHT22;37062;52.546;13.230;2023-08-06T01:07:56;19.90;99.90
51035;DHT22;37062;52.546;13.230;2023-08-06T01:10:38;19.80;99.90
51035;DHT22;37062;52.546;13.230;2023-08-06T01:13:16;19.70;99.90
51035;DHT22;37062;52.546;13.230;2023-08-06T01:15:49;19.80;99.90
51035;DHT22;37062;52.546;13.230;2023-08-06T01:18:18;19.70;99.90
51035;DHT22;37062;52.546;13.230;2023-08-06T01:20:47;19.60;99.90
51035;DHT22;37062;52.546;13.230;2023-08-06T01:23:16;19.60;99.90
51035;DHT22;37062;52.546;13.230;2023-08-06T01:25:50;19.70;99.90
51035;DHT22;37062;52.546;13.230;2023-08-06T01:28:31;19.60;99.90
51035;DHT22;37062;52.546;13.230;2023-08-06T01:31:03;19.50;99.90
51035;DHT22;37062;52.546;13.230;2023-08-06T01:33:34;19.30;99.90
51035;DHT22;37062;52.546;13.230;2023-08-06T01:36:05;19.30;99.90
51035;DHT22;37062;52.546;13.230;2023-08-06T01:38:33;19.20;99.90
51035;DHT22;37062;52.546;13.230;2023-08-06T01:41:02;19.20;99.90
51035;DHT22;37062;52.546;13.230;2023-08-06T01:43:30;19.20;99.90
51035;DHT22;37062;52.546;13.230;2023-08-06T01:45:58;19.30;99.90
51035;DHT22;37062;52.546;13.230;2023-08-06T01:48:27;19.30;99.90
51035;DHT22;37062;52.546;13.230;2023-08-06T01:50:55;19.30;99.90
51035;DHT22;37062;52.546;13.230;2023-08-06T01:53:24;19.20;99.90
51035;DHT22;37062;52.546;13.230;2023-08-06T01:55:52;19.20;99.90
51035;DHT22;37062;52.546;13.230;2023-08-06T01:58:21;19.20;99.90
51035;DHT22;37062;52.546;13.230;2023-08-06T02:00:49;19.20;99.90
51035;DHT22;37062;52.546;13.230;2023-08-06T02:03:17;19.10;99.90
51035;DHT22;37062;52.546;13.230;2023-08-06T02:05:48;19.20;99.90
51035;DHT22;37062;52.546;13.230;2023-08-06T02:08:19;19.30;99.90
51035;DHT22;37062;52.546;13.230;2023-08-06T02:10:48;19.30;99.90
51035;DHT22;37062;52.546;13.230;2023-08-06T02:13:16;19.20;99.90
51035;DHT22;37062;52.546;13.230;2023-08-06T02:15:45;19.10;99.90
51035;DHT22;37062;52.546;13.230;2023-08-06T02:18:14;19.10;99.90
51035;DHT22;37062;52.546;13.230;2023-08-06T02:20:43;19.20;99.90
51035;DHT22;37062;52.546;13.230;2023-08-06T02:23:11;19.30;99.90
51035;DHT22;37062;52.546;13.230;2023-08-06T02:25:39;19.30;99.90
51035;DHT22;37062;52.546;13.230;2023-08-06T02:28:09;19.30;99.90
51035;DHT22;37062;52.546;13.230;2023-08-06T02:30:39;19.30;99.90
51035;DHT22;37062;52.546;13.230;2023-08-06T02:33:07;19.40;99.90
51035;DHT22;37062;52.546;13.230;2023-08-06T02:35:36;19.40;99.90
51035;DHT22;37062;52.546;13.230;2023-08-06T02:38:04;19.50;99.90
51035;DHT22;37062;52.546;13.230;2023-08-06T02:40:32;19.60;99.90
51035;DHT22;37062;52.546;13.230;2023-08-06T02:43:00;19.50;99.90
51035;DHT22;37062;52.546;13.230;2023-08-06T02:45:30;19.50;99.90
51035;DHT22;37062;52.546;13.230;2023-08-06T02:47:59;19.50;99.90
51035;DHT22;37062;52.546;13.230;2023-08-06T02:50:27;19.60;99.90
51035;DHT22;37062;52.546;13.230;2023-08-06T02:52:55;19.60;99.90
51035;DHT22;37062;52.546;13.230;2023-08-06T02:55:24;19.60;99.90
51035;DHT22;37062;52.546;13.230;2023-08-06T02:57:52;19.60;99.90
51035;DHT22;37062;52.546;13.230;2023-08-06T03:00:21;19.50;99.90
51035;DHT22;37062;52.546;13.230;2023-08-06T03:02:50;19.50;99.90
51035;DHT22;37062;52.546;13.230;2023-08-06T03:05:36;19.50;99.90
51035;DHT22;37062;52.546;13.230;2023-08-06T03:08:04;19.40;99.90
51035;DHT22;37062;52.546;13.230;2023-08-06T03:10:35;19.30;99.90
51035;DHT22;37062;52.546;13.230;2023-08-06T03:13:05;19.20;99.90
51035;DHT22;37062;52.546;13.230;2023-08-06T03:15:33;19.10;99.90
51035;DHT22;37062;52.546;13.230;2023-08-06T03:18:03;19.00;99.90
51035;DHT22;37062;52.546;13.230;2023-08-06T03:20:32;19.00;99.90
51035;DHT22;37062;52.546;13.230;2023-08-06T03:23:01;18.90;99.90
51035;DHT22;37062;52.546;13.230;2023-08-06T03:25:30;19.00;99.90
51035;DHT22;37062;52.546;13.230;2023-08-06T03:27:59;18.90;99.90
51035;DHT22;37062;52.546;13.230;2023-08-06T03:30:27;18.90;99.90
51035;DHT22;37062;52.546;13.230;2023-08-06T03:32:55;18.80;99.90
51035;DHT22;37062;52.546;13.230;2023-08-06T03:35:25;18.90;99.90
51035;DHT22;37062;52.546;13.230;2023-08-06T03:37:53;18.80;99.90
51035;DHT22;37062;52.546;13.230;2023-08-06T03:40:22;18.80;99.90
51035;DHT22;37062;52.546;13.230;2023-08-06T03:42:50;18.70;99.90
51035;DHT22;37062;52.546;13.230;2023-08-06T03:45:18;18.70;99.90
51035;DHT22;37062;52.546;13.230;2023-08-06T03:47:47;18.70;99.90
51035;DHT22;37062;52.546;13.230;2023-08-06T03:50:16;18.70;99.90
51035;DHT22;37062;52.546;13.230;2023-08-06T03:52:45;18.70;99.90
51035;DHT22;37062;52.546;13.230;2023-08-06T03:55:14;18.90;99.90
51035;DHT22;37062;52.546;13.230;2023-08-06T03:57:42;19.00;99.90
51035;DHT22;37062;52.546;13.230;2023-08-06T04:00:11;19.00;99.90
51035;DHT22;37062;52.546;13.230;2023-08-06T04:02:42;19.00;99.90
51035;DHT22;37062;52.546;13.230;2023-08-06T04:05:13;19.10;99.90
51035;DHT22;37062;52.546;13.230;2023-08-06T04:07:42;19.20;99.90
51035;DHT22;37062;52.546;13.230;2023-08-06T04:10:11;19.30;99.90
51035;DHT22;37062;52.546;13.230;2023-08-06T04:12:39;19.30;99.90
51035;DHT22;37062;52.546;13.230;2023-08-06T04:15:08;19.40;99.90
51035;DHT22;37062;52.546;13.230;2023-08-06T04:17:36;19.40;99.90
51035;DHT22;37062;52.546;13.230;2023-08-06T04:20:06;19.40;99.90
51035;DHT22;37062;52.546;13.230;2023-08-06T04:22:34;19.40;99.90
51035;DHT22;37062;52.546;13.230;2023-08-06T04:25:04;19.40;99.90
51035;DHT22;37062;52.546;13.230;2023-08-06T04:27:35;19.40;99.90
51035;DHT22;37062;52.546;13.230;2023-08-06T04:30:10;19.50;99.90
51035;DHT22;37062;52.546;13.230;2023-08-06T04:32:40;19.50;99.90
51035;DHT22;37062;52.546;13.230;2023-08-06T04:35:08;19.50;99.90
51035;DHT22;37062;52.546;13.230;2023-08-06T04:37:37;19.50;99.90
51035;DHT22;37062;52.546;13.230;2023-08-06T04:40:07;19.40;99.90
51035;DHT22;37062;52.546;13.230;2023-08-06T04:42:37;19.40;99.90
51035;DHT22;37062;52.546;13.230;2023-08-06T04:45:06;19.40;99.90
51035;DHT22;37062;52.546;13.230;2023-08-06T04:47:35;19.40;99.90
51035;DHT22;37062;52.546;13.230;2023-08-06T04:50:03;19.40;99.90
51035;DHT22;37062;52.546;13.230;2023-08-06T04:52:32;19.40;99.90
51035;DHT22;37062;52.546;13.230;2023-08-06T04:55:00;19.40;99.90
51035;DHT22;37062;52.546;13.230;2023-08-06T04:57:28;19.30;99.90
51035;DHT22;37062;52.546;13.230;2023-08-06T04:59:57;19.40;99.90
51035;DHT22;37062;52.546;13.230;2023-08-06T05:02:26;19.40;99.90
51035;DHT22;37062;52.546;13.230;2023-08-06T05:04:54;19.40;99.90
51035;DHT22;37062;52.546;13.230;2023-08-06T05:07:22;19.40;99.90
51035;DHT22;37062;52.546;13.230;2023-08-06T05:09:50;19.40;99.90
51035;DHT22;37062;52.546;13.230;2023-08-06T05:12:18;19.40;99.90
51035;DHT22;37062;52.546;13.230;2023-08-06T05:14:47;19.50;99.90
51035;DHT22;37062;52.546;13.230;2023-08-06T05:17:16;19.50;99.90
51035;DHT22;37062;52.546;13.230;2023-08-06T05:19:44;19.50;99.90
51035;DHT22;37062;52.546;13.230;2023-08-06T05:22:12;19.50;99.90
51035;DHT22;37062;52.546;13.230;2023-08-06T05:24:40;19.50;99.90
51035;DHT22;37062;52.546;13.230;2023-08-06T05:27:09;19.50;99.90
51035;DHT22;37062;52.546;13.230;2023-08-06T05:29:37;19.50;99.90
51035;DHT22;37062;52.546;13.230;2023-08-06T05:32:06;19.60;99.90
51035;DHT22;37062;52.546;13.230;2023-08-06T05:34:36;19.60;99.90
51035;DHT22;37062;52.546;13.230;2023-08-06T05:37:05;19.60;99.90
51035;DHT22;37062;52.546;13.230;2023-08-06T05:39:33;19.60;99.90
51035;DHT22;37062;52.546;13.230;2023-08-06T05:42:01;19.70;99.90
51035;DHT22;37062;52.546;13.230;2023-08-06T05:44:29;19.70;99.90
51035;DHT22;37062;52.546;13.230;2023-08-06T05:46:57;19.70;99.90
51035;DHT22;37062;52.546;13.230;2023-08-06T05:49:26;19.70;99.90
51035;DHT22;37062;52.546;13.230;2023-08-06T05:51:55;19.60;99.90
51035;DHT22;37062;52.546;13.230;2023-08-06T05:54:23;19.50;99.90
51035;DHT22;37062;52.546;13.230;2023-08-06T05:56:51;19.30;99.90
51035;DHT22;37062;52.546;13.230;2023-08-06T05:59:20;19.10;99.90
51035;DHT22;37062;52.546;13.230;2023-08-06T06:01:48;19.10;99.90
51035;DHT22;37062;52.546;13.230;2023-08-06T06:04:16;18.90;99.90
51035;DHT22;37062;52.546;13.230;2023-08-06T06:06:44;18.80;99.90
51035;DHT22;37062;52.546;13.230;2023-08-06T06:09:14;18.90;99.90
51035;DHT22;37062;52.546;13.230;2023-08-06T06:11:42;18.90;99.90
51035;DHT22;37062;52.546;13.230;2023-08-06T06:14:11;18.90;99.90
51035;DHT22;37062;52.546;13.230;2023-08-06T06:16:39;18.90;99.90
51035;DHT22;37062;52.546;13.230;2023-08-06T06:19:07;19.00;99.90
51035;DHT22;37062;52.546;13.230;2023-08-06T06:21:35;19.10;99.90
51035;DHT22;37062;52.546;13.230;2023-08-06T06:24:04;19.20;99.90
51035;DHT22;37062;52.546;13.230;2023-08-06T06:26:34;19.40;99.90
51035;DHT22;37062;52.546;13.230;2023-08-06T06:29:02;19.50;99.90
51035;DHT22;37062;52.546;13.230;2023-08-06T06:31:34;19.60;99.90
51035;DHT22;37062;52.546;13.230;2023-08-06T06:34:02;19.70;99.90
51035;DHT22;37062;52.546;13.230;2023-08-06T06:36:30;19.80;99.90
51035;DHT22;37062;52.546;13.230;2023-08-06T06:38:58;19.90;99.90
51035;DHT22;37062;52.546;13.230;2023-08-06T06:41:26;19.90;99.90
51035;DHT22;37062;52.546;13.230;2023-08-06T06:44:05;20.00;99.90
51035;DHT22;37062;52.546;13.230;2023-08-06T06:46:33;20.00;99.90
51035;DHT22;37062;52.546;13.230;2023-08-06T06:49:01;20.10;99.90
51035;DHT22;37062;52.546;13.230;2023-08-06T06:51:30;20.10;99.90
51035;DHT22;37062;52.546;13.230;2023-08-06T06:53:59;20.20;99.90
51035;DHT22;37062;52.546;13.230;2023-08-06T06:56:27;20.20;99.90
51035;DHT22;37062;52.546;13.230;2023-08-06T06:58:55;20.20;99.90
51035;DHT22;37062;52.546;13.230;2023-08-06T07:01:25;20.20;99.90
51035;DHT22;37062;52.546;13.230;2023-08-06T07:03:53;20.10;99.90
51035;DHT22;37062;52.546;13.230;2023-08-06T07:06:21;20.20;99.90
51035;DHT22;37062;52.546;13.230;2023-08-06T07:08:49;20.20;99.90
51035;DHT22;37062;52.546;13.230;2023-08-06T07:11:17;20.30;99.90
51035;DHT22;37062;52.546;13.230;2023-08-06T07:13:45;20.30;99.90
51035;DHT22;37062;52.546;13.230;2023-08-06T07:16:14;20.30;99.90
51035;DHT22;37062;52.546;13.230;2023-08-06T07:18:43;20.30;99.90
51035;DHT22;37062;52.546;13.230;2023-08-06T07:21:12;20.40;99.90
51035;DHT22;37062;52.546;13.230;2023-08-06T07:23:40;20.50;99.90
51035;DHT22;37062;52.546;13.230;2023-08-06T07:26:08;20.50;99.90
51035;DHT22;37062;52.546;13.230;2023-08-06T07:28:37;20.60;99.90
51035;DHT22;37062;52.546;13.230;2023-08-06T07:31:05;20.60;99.90
51035;DHT22;37062;52.546;13.230;2023-08-06T07:33:35;20.60;99.90
51035;DHT22;37062;52.546;13.230;2023-08-06T07:36:11;20.60;99.90
51035;DHT22;37062;52.546;13.230;2023-08-06T07:38:40;20.60;99.90
51035;DHT22;37062;52.546;13.230;2023-08-06T07:41:08;20.60;99.90
51035;DHT22;37062;52.546;13.230;2023-08-06T07:43:37;20.70;99.90
51035;DHT22;37062;52.546;13.230;2023-08-06T07:46:05;20.70;99.90
51035;DHT22;37062;52.546;13.230;2023-08-06T07:48:33;20.70;99.90
51035;DHT22;37062;52.546;13.230;2023-08-06T07:51:01;20.70;99.90
51035;DHT22;37062;52.546;13.230;2023-08-06T07:53:31;20.80;99.90
51035;DHT22;37062;52.546;13.230;2023-08-06T07:55:59;20.80;99.90
51035;DHT22;37062;52.546;13.230;2023-08-06T07:58:28;20.80;99.90
51035;DHT22;37062;52.546;13.230;2023-08-06T08:00:58;20.90;99.90
51035;DHT22;37062;52.546;13.230;2023-08-06T08:03:30;20.90;99.90
51035;DHT22;37062;52.546;13.230;2023-08-06T08:05:59;20.90;99.90
51035;DHT22;37062;52.546;13.230;2023-08-06T08:08:27;21.00;99.90
51035;DHT22;37062;52.546;13.230;2023-08-06T08:10:57;21.00;99.90
51035;DHT22;37062;52.546;13.230;2023-08-06T08:13:27;21.00;99.90
51035;DHT22;37062;52.546;13.230;2023-08-06T08:15:58;21.00;99.90
51035;DHT22;37062;52.546;13.230;2023-08-06T08:18:26;21.10;99.90
51035;DHT22;37062;52.546;13.230;2023-08-06T08:20:54;21.10;99.90
51035;DHT22;37062;52.546;13.230;2023-08-06T08:23:22;21.00;99.90
51035;DHT22;37062;52.546;13.230;2023-08-06T08:25:51;21.10;99.90
51035;DHT22;37062;52.546;13.230;2023-08-06T08:28:21;21.10;99.90
51035;DHT22;37062;52.546;13.230;2023-08-06T08:30:49;21.20;99.90
51035;DHT22;37062;52.546;13.230;2023-08-06T08:33:17;21.20;99.90
51035;DHT22;37062;52.546;13.230;2023-08-06T08:35:46;21.30;99.90
51035;DHT22;37062;52.546;13.230;2023-08-06T08:38:14;21.30;99.90
51035;DHT22;37062;52.546;13.230;2023-08-06T08:40:46;21.40;99.90
51035;DHT22;37062;52.546;13.230;2023-08-06T08:43:15;21.40;99.90
51035;DHT22;37062;52.546;13.230;2023-08-06T08:45:46;21.50;99.90
51035;DHT22;37062;52.546;13.230;2023-08-06T08:48:18;21.60;99.90
51035;DHT22;37062;52.546;13.230;2023-08-06T08:50:48;21.60;99.90
51035;DHT22;37062;52.546;13.230;2023-08-06T08:53:17;21.60;99.90
51035;DHT22;37062;52.546;13.230;2023-08-06T08:55:47;21.60;99.90
51035;DHT22;37062;52.546;13.230;2023-08-06T08:58:16;21.70;99.90
51035;DHT22;37062;52.546;13.230;2023-08-06T09:00:46;21.70;99.90
51035;DHT22;37062;52.546;13.230;2023-08-06T09:03:16;21.80;99.90
51035;DHT22;37062;52.546;13.230;2023-08-06T09:05:45;21.70;99.90
51035;DHT22;37062;52.546;13.230;2023-08-06T09:08:18;21.70;99.90
51035;DHT22;37062;52.546;13.230;2023-08-06T09:10:49;21.60;99.90
51035;DHT22;37062;52.546;13.230;2023-08-06T09:13:20;21.60;99.90
51035;DHT22;37062;52.546;13.230;2023-08-06T09:15:51;21.70;99.90
51035;DHT22;37062;52.546;13.230;2023-08-06T09:18:25;21.70;99.90
51035;DHT22;37062;52.546;13.230;2023-08-06T09:20:55;21.60;99.90
51035;DHT22;37062;52.546;13.230;2023-08-06T09:23:27;21.60;99.90
51035;DHT22;37062;52.546;13.230;2023-08-06T09:25:56;21.60;99.90
51035;DHT22;37062;52.546;13.230;2023-08-06T09:28:28;21.60;99.90
51035;DHT22;37062;52.546;13.230;2023-08-06T09:31:05;21.60;99.90
51035;DHT22;37062;52.546;13.230;2023-08-06T09:33:34;21.70;99.90
51035;DHT22;37062;52.546;13.230;2023-08-06T09:36:10;21.70;99.90
51035;DHT22;37062;52.546;13.230;2023-08-06T09:38:39;21.60;99.90
51035;DHT22;37062;52.546;13.230;2023-08-06T09:41:08;21.60;99.90
51035;DHT22;37062;52.546;13.230;2023-08-06T09:43:40;21.60;99.90
51035;DHT22;37062;52.546;13.230;2023-08-06T09:46:14;21.70;99.90
51035;DHT22;37062;52.546;13.230;2023-08-06T09:48:47;21.70;99.90
51035;DHT22;37062;52.546;13.230;2023-08-06T09:51:16;21.70;99.90
51035;DHT22;37062;52.546;13.230;2023-08-06T09:53:47;21.80;99.90
51035;DHT22;37062;52.546;13.230;2023-08-06T09:56:17;21.80;99.90
51035;DHT22;37062;52.546;13.230;2023-08-06T09:58:47;21.90;99.90
51035;DHT22;37062;52.546;13.230;2023-08-06T10:01:19;22.00;99.90
51035;DHT22;37062;52.546;13.230;2023-08-06T10:03:48;22.00;99.90
51035;DHT22;37062;52.546;13.230;2023-08-06T10:06:17;22.00;99.90
51035;DHT22;37062;52.546;13.230;2023-08-06T10:08:46;22.10;99.90
51035;DHT22;37062;52.546;13.230;2023-08-06T10:11:17;22.10;99.90
51035;DHT22;37062;52.546;13.230;2023-08-06T10:13:46;22.00;99.90
51035;DHT22;37062;52.546;13.230;2023-08-06T10:16:15;21.90;99.90
51035;DHT22;37062;52.546;13.230;2023-08-06T10:18:47;21.80;99.90
51035;DHT22;37062;52.546;13.230;2023-08-06T10:21:17;21.80;99.90
51035;DHT22;37062;52.546;13.230;2023-08-06T10:23:54;21.80;99.90
51035;DHT22;37062;52.546;13.230;2023-08-06T10:26:25;21.80;99.90
51035;DHT22;37062;52.546;13.230;2023-08-06T10:28:54;21.70;99.90
51035;DHT22;37062;52.546;13.230;2023-08-06T10:31:54;21.70;99.90
51035;DHT22;37062;52.546;13.230;2023-08-06T10:34:25;21.90;99.90
51035;DHT22;37062;52.546;13.230;2023-08-06T10:36:55;22.00;99.90
51035;DHT22;37062;52.546;13.230;2023-08-06T10:39:23;22.00;99.90
51035;DHT22;37062;52.546;13.230;2023-08-06T10:41:57;22.00;99.90
51035;DHT22;37062;52.546;13.230;2023-08-06T10:44:26;22.00;99.90
51035;DHT22;37062;52.546;13.230;2023-08-06T10:47:27;22.00;99.90
51035;DHT22;37062;52.546;13.230;2023-08-06T10:49:57;22.00;99.90
51035;DHT22;37062;52.546;13.230;2023-08-06T10:52:25;22.00;99.90
51035;DHT22;37062;52.546;13.230;2023-08-06T10:54:54;22.00;99.90
51035;DHT22;37062;52.546;13.230;2023-08-06T10:57:24;22.00;99.90
51035;DHT22;37062;52.546;13.230;2023-08-06T10:59:52;22.00;99.90
51035;DHT22;37062;52.546;13.230;2023-08-06T11:02:36;21.90;99.90
51035;DHT22;37062;52.546;13.230;2023-08-06T11:05:08;21.90;99.90
51035;DHT22;37062;52.546;13.230;2023-08-06T11:07:37;22.00;99.90
51035;DHT22;37062;52.546;13.230;2023-08-06T11:10:07;22.10;99.90
51035;DHT22;37062;52.546;13.230;2023-08-06T11:12:37;22.20;99.90
51035;DHT22;37062;52.546;13.230;2023-08-06T11:15:06;22.20;99.90
51035;DHT22;37062;52.546;13.230;2023-08-06T11:17:35;22.30;99.90
51035;DHT22;37062;52.546;13.230;2023-08-06T11:20:04;22.30;99.90
51035;DHT22;37062;52.546;13.230;2023-08-06T11:22:36;22.40;99.90
51035;DHT22;37062;52.546;13.230;2023-08-06T11:25:06;22.40;99.90
51035;DHT22;37062;52.546;13.230;2023-08-06T11:27:34;22.40;99.90
51035;DHT22;37062;52.546;13.230;2023-08-06T11:30:03;22.50;99.90
51035;DHT22;37062;52.546;13.230;2023-08-06T11:32:32;22.60;99.90
51035;DHT22;37062;52.546;13.230;2023-08-06T11:35:09;22.50;99.90
51035;DHT22;37062;52.546;13.230;2023-08-06T11:37:43;22.50;99.90
51035;DHT22;37062;52.546;13.230;2023-08-06T11:40:14;22.50;99.90
51035;DHT22;37062;52.546;13.230;2023-08-06T11:42:43;22.40;99.90
51035;DHT22;37062;52.546;13.230;2023-08-06T11:45:11;22.30;99.90
51035;DHT22;37062;52.546;13.230;2023-08-06T11:47:39;22.30;99.90
51035;DHT22;37062;52.546;13.230;2023-08-06T11:50:08;22.20;99.90
51035;DHT22;37062;52.546;13.230;2023-08-06T11:52:40;22.20;99.90
51035;DHT22;37062;52.546;13.230;2023-08-06T11:55:09;22.10;99.90
51035;DHT22;37062;52.546;13.230;2023-08-06T11:57:39;22.20;99.90
51035;DHT22;37062;52.546;13.230;2023-08-06T12:00:08;22.20;99.90
51035;DHT22;37062;52.546;13.230;2023-08-06T12:02:44;22.20;99.90
51035;DHT22;37062;52.546;13.230;2023-08-06T12:05:14;22.10;99.90
51035;DHT22;37062;52.546;13.230;2023-08-06T12:07:45;22.00;99.90
51035;DHT22;37062;52.546;13.230;2023-08-06T12:10:14;21.90;99.90
51035;DHT22;37062;52.546;13.230;2023-08-06T12:12:43;21.60;99.90
51035;DHT22;37062;52.546;13.230;2023-08-06T12:15:12;20.70;99.90
51035;DHT22;37062;52.546;13.230;2023-08-06T12:17:40;20.40;99.90
51035;DHT22;37062;52.546;13.230;2023-08-06T12:20:09;20.30;99.90
51035;DHT22;37062;52.546;13.230;2023-08-06T12:22:38;20.20;99.90
51035;DHT22;37062;52.546;13.230;2023-08-06T12:25:09;20.20;99.90
51035;DHT22;37062;52.546;13.230;2023-08-06T12:27:39;20.10;99.90
51035;DHT22;37062;52.546;13.230;2023-08-06T12:30:08;20.00;99.90
51035;DHT22;37062;52.546;13.230;2023-08-06T12:32:36;19.80;99.90
51035;DHT22;37062;52.546;13.230;2023-08-06T12:35:06;19.70;99.90
51035;DHT22;37062;52.546;13.230;2023-08-06T12:37:35;19.70;99.90
51035;DHT22;37062;52.546;13.230;2023-08-06T12:40:08;19.60;99.90
51035;DHT22;37062;52.546;13.230;2023-08-06T12:42:56;19.60;99.90
51035;DHT22;37062;52.546;13.230;2023-08-06T12:45:26;19.60;99.90
51035;DHT22;37062;52.546;13.230;2023-08-06T12:47:54;19.60;99.90
51035;DHT22;37062;52.546;13.230;2023-08-06T12:50:22;19.50;99.90
51035;DHT22;37062;52.546;13.230;2023-08-06T12:52:51;19.60;99.90
51035;DHT22;37062;52.546;13.230;2023-08-06T12:55:20;19.50;99.90
51035;DHT22;37062;52.546;13.230;2023-08-06T12:57:48;19.40;99.90
51035;DHT22;37062;52.546;13.230;2023-08-06T13:00:24;19.40;99.90
51035;DHT22;37062;52.546;13.230;2023-08-06T13:02:58;19.40;99.90
51035;DHT22;37062;52.546;13.230;2023-08-06T13:05:26;19.40;99.90
51035;DHT22;37062;52.546;13.230;2023-08-06T13:07:54;19.40;99.90
51035;DHT22;37062;52.546;13.230;2023-08-06T13:10:25;19.40;99.90
51035;DHT22;37062;52.546;13.230;2023-08-06T13:12:55;19.40;99.90
51035;DHT22;37062;52.546;13.230;2023-08-06T13:15:23;19.40;99.90
51035;DHT22;37062;52.546;13.230;2023-08-06T13:17:52;19.50;99.90
51035;DHT22;37062;52.546;13.230;2023-08-06T13:20:20;19.50;99.90
51035;DHT22;37062;52.546;13.230;2023-08-06T13:22:49;19.60;99.90
51035;DHT22;37062;52.546;13.230;2023-08-06T13:25:20;19.70;99.90
51035;DHT22;37062;52.546;13.230;2023-08-06T13:27:50;19.60;99.90
51035;DHT22;37062;52.546;13.230;2023-08-06T13:30:19;19.70;99.90
51035;DHT22;37062;52.546;13.230;2023-08-06T13:32:47;19.70;99.90
51035;DHT22;37062;52.546;13.230;2023-08-06T13:35:15;19.60;99.90
51035;DHT22;37062;52.546;13.230;2023-08-06T13:37:44;19.60;99.90
51035;DHT22;37062;52.546;13.230;2023-08-06T13:40:13;19.50;99.90
51035;DHT22;37062;52.546;13.230;2023-08-06T13:42:41;19.50;99.90
51035;DHT22;37062;52.546;13.230;2023-08-06T13:45:11;19.50;99.90
51035;DHT22;37062;52.546;13.230;2023-08-06T13:47:40;19.60;99.90
51035;DHT22;37062;52.546;13.230;2023-08-06T13:50:09;19.60;99.90
51035;DHT22;37062;52.546;13.230;2023-08-06T13:52:37;19.60;99.90
51035;DHT22;37062;52.546;13.230;2023-08-06T13:55:06;19.50;99.90
51035;DHT22;37062;52.546;13.230;2023-08-06T13:57:35;19.40;99.90
51035;DHT22;37062;52.546;13.230;2023-08-06T14:00:05;19.40;99.90
51035;DHT22;37062;52.546;13.230;2023-08-06T14:02:43;19.40;99.90
51035;DHT22;37062;52.546;13.230;2023-08-06T14:05:12;19.50;99.90
51035;DHT22;37062;52.546;13.230;2023-08-06T14:07:40;19.50;99.90
51035;DHT22;37062;52.546;13.230;2023-08-06T14:10:09;19.60;99.90
51035;DHT22;37062;52.546;13.230;2023-08-06T14:12:37;19.60;99.90
51035;DHT22;37062;52.546;13.230;2023-08-06T14:15:06;19.70;99.90
51035;DHT22;37062;52.546;13.230;2023-08-06T14:17:34;19.80;99.90
51035;DHT22;37062;52.546;13.230;2023-08-06T14:20:06;19.80;99.90
51035;DHT22;37062;52.546;13.230;2023-08-06T14:22:35;19.90;99.90
51035;DHT22;37062;52.546;13.230;2023-08-06T14:25:04;19.90;99.90
51035;DHT22;37062;52.546;13.230;2023-08-06T14:27:33;19.90;99.90
51035;DHT22;37062;52.546;13.230;2023-08-06T14:30:01;19.70;99.90
51035;DHT22;37062;52.546;13.230;2023-08-06T14:32:30;19.60;99.90
51035;DHT22;37062;52.546;13.230;2023-08-06T14:34:58;19.60;99.90
51035;DHT22;37062;52.546;13.230;2023-08-06T14:37:28;19.40;99.90
51035;DHT22;37062;52.546;13.230;2023-08-06T14:39:56;19.00;99.90
51035;DHT22;37062;52.546;13.230;2023-08-06T14:42:24;18.90;99.90
51035;DHT22;37062;52.546;13.230;2023-08-06T14:44:52;18.90;99.90
51035;DHT22;37062;52.546;13.230;2023-08-06T14:47:20;18.90;99.90
51035;DHT22;37062;52.546;13.230;2023-08-06T14:49:48;19.00;99.90
51035;DHT22;37062;52.546;13.230;2023-08-06T14:52:17;19.10;99.90
51035;DHT22;37062;52.546;13.230;2023-08-06T14:54:47;19.30;99.90
51035;DHT22;37062;52.546;13.230;2023-08-06T14:57:19;19.40;99.90
51035;DHT22;37062;52.546;13.230;2023-08-06T14:59:48;19.60;99.90
51035;DHT22;37062;52.546;13.230;2023-08-06T15:02:16;19.70;99.90
51035;DHT22;37062;52.546;13.230;2023-08-06T15:04:44;19.90;99.90
51035;DHT22;37062;52.546;13.230;2023-08-06T15:07:13;20.00;99.90
51035;DHT22;37062;52.546;13.230;2023-08-06T15:09:41;19.90;99.90
51035;DHT22;37062;52.546;13.230;2023-08-06T15:12:31;19.90;99.90
51035;DHT22;37062;52.546;13.230;2023-08-06T15:14:59;19.90;99.90
51035;DHT22;37062;52.546;13.230;2023-08-06T15:17:28;19.80;99.90
51035;DHT22;37062;52.546;13.230;2023-08-06T15:19:57;19.90;99.90
51035;DHT22;37062;52.546;13.230;2023-08-06T15:22:26;19.90;99.90
51035;DHT22;37062;52.546;13.230;2023-08-06T15:24:55;19.80;99.90
51035;DHT22;37062;52.546;13.230;2023-08-06T15:27:24;19.80;99.90
51035;DHT22;37062;52.546;13.230;2023-08-06T15:29:54;19.80;99.90